sensor_id;sensor_type;location;lat;lon;timestamp;pressure;altitude;pressure_sealevel;temperature;humidity
69784;BME280;57054;51.978;4.498;2023-02-28T00:00:11;103203.78;;;2.84;88.63
69784;BME280;57054;51.978;4.498;2023-02-28T00:02:38;103204.59;;;2.83;nan
69784;BME280;57054;51.978;4.498;2023-02-28T00:05:05;103210.63;;;2.82;88.76
69784;BME280;57054;51.978;4.498;2023-02-28T00:07:31;103200.25;;;2.82;88.79
69784;BME280;57054;51.978;4.498;2023-02-28T00:09:57;103199.34;;;2.82;88.83
69784;BME280;57054;51.978;4.498;2023-02-28T00:12:23;103208.84;;;2.81;88.70
69784;BME280;57054;51.978;4.498;2023-02-28T00:14:49;103213.97;;;2.80;88.93
69784;BME280;57054;51.978;4.498;2023-02-28T00:17:14;103212.22;;;2.79;88.89
69784;BME280;57054;51.978;4.498;2023-02-28T00:19:41;103219.94;;;2.77;88.83
69784;BME280;57054;51.978;4.498;2023-02-28T00:22:06;103227.72;;;2.77;88.93
69784;BME280;57054;51.978;4.498;2023-02-28T00:24:32;103220.75;;;2.76;89.00
69784;BME280;57054;51.978;4.498;2023-02-28T00:26:57;103224.25;;;2.77;88.99
69784;BME280;57054;51.978;4.498;2023-02-28T00:29:22;103217.31;;;2.76;88.99
69784;BME280;57054;51.978;4.498;2023-02-28T00:31:48;103229.38;;;2.75;89.12
69784;BME280;57054;51.978;4.498;2023-02-28T00:34:13;103225.03;;;2.74;89.07
69784;BME280;57054;51.978;4.498;2023-02-28T00:36:39;103227.59;;;2.74;89.05
69784;BME280;57054;51.978;4.498;2023-02-28T00:39:06;103230.19;;;2.74;89.14
69784;BME280;57054;51.978;4.498;2023-02-28T00:41:31;103227.59;;;2.74;89.27
69784;BME280;57054;51.978;4.498;2023-02-28T00:43:56;103218.19;;;2.76;89.45
69784;BME280;57054;51.978;4.498;2023-02-28T00:46:22;103219.94;;;2.77;89.46
69784;BME280;57054;51.978;4.498;2023-02-28T00:48:47;103216.56;;;2.80;89.72
69784;BME280;57054;51.978;4.498;2023-02-28T00:51:12;103215.75;;;2.81;89.76
69784;BME280;57054;51.978;4.498;2023-02-28T00:53:38;103220.06;;;2.82;89.89
69784;BME280;57054;51.978;4.498;2023-02-28T00:56:03;103216.66;;;2.83;89.96
69784;BME280;57054;51.978;4.498;2023-02-28T00:58:29;103199.41;;;2.83;90.02
69784;BME280;57054;51.978;4.498;2023-02-28T01:00:54;103206.34;;;2.84;90.02
69784;BME280;57054;51.978;4.498;2023-02-28T01:03:20;103212.41;;;2.85;90.19
69784;BME280;57054;51.978;4.498;2023-02-28T01:05:47;103216.75;;;2.86;90.16
69784;BME280;57054;51.978;4.498;2023-02-28T01:08:12;103222.00;;;2.87;90.39
69784;BME280;57054;51.978;4.498;2023-02-28T01:10:39;103227.16;;;2.87;90.44
69784;BME280;57054;51.978;4.498;2023-02-28T01:13:04;103222.84;;;2.88;90.41
69784;BME280;57054;51.978;4.498;2023-02-28T01:15:30;103227.16;;;2.87;90.49
69784;BME280;57054;51.978;4.498;2023-02-28T01:17:57;103234.06;;;2.88;90.61
69784;BME280;57054;51.978;4.498;2023-02-28T01:20:22;103232.34;;;2.89;90.75
69784;BME280;57054;51.978;4.498;2023-02-28T01:22:48;103223.78;;;2.90;90.82
69784;BME280;57054;51.978;4.498;2023-02-28T01:25:13;103220.31;;;2.90;90.84
69784;BME280;57054;51.978;4.498;2023-02-28T01:27:38;103227.28;;;2.92;90.95
69784;BME280;57054;51.978;4.498;2023-02-28T01:30:06;103225.56;;;2.93;91.10
69784;BME280;57054;51.978;4.498;2023-02-28T01:32:31;103226.47;;;2.93;91.07
69784;BME280;57054;51.978;4.498;2023-02-28T01:34:57;103215.25;;;2.94;91.17
69784;BME280;57054;51.978;4.498;2023-02-28T01:37:22;103219.63;;;2.95;91.25
69784;BME280;57054;51.978;4.498;2023-02-28T01:39:48;103217.03;;;2.95;91.27
69784;BME280;57054;51.978;4.498;2023-02-28T01:42:13;103208.41;;;2.96;91.42
69784;BME280;57054;51.978;4.498;2023-02-28T01:47:42;103215.31;;;2.96;91.06
69784;BME280;57054;51.978;4.498;2023-02-28T01:50:22;103209.31;;;2.97;91.31
69784;BME280;57054;51.978;4.498;2023-02-28T01:52:50;103211.91;;;2.97;91.41
69784;BME280;57054;51.978;4.498;2023-02-28T01:55:18;103194.66;;;2.97;91.49
69784;BME280;57054;51.978;4.498;2023-02-28T01:57:48;103194.66;;;2.97;91.43
69784;BME280;57054;51.978;4.498;2023-02-28T02:00:16;103192.88;;;2.96;91.52
69784;BME280;57054;51.978;4.498;2023-02-28T02:02:44;103188.59;;;2.97;91.43
69784;BME280;57054;51.978;4.498;2023-02-28T02:05:15;103192.94;;;2.98;91.64
69784;BME280;57054;51.978;4.498;2023-02-28T02:07:43;103193.78;;;2.98;91.58
69784;BME280;57054;51.978;4.498;2023-02-28T02:10:31;103187.75;;;2.98;91.63
69784;BME280;57054;51.978;4.498;2023-02-28T02:15:53;103185.22;;;2.99;91.70
69784;BME280;57054;51.978;4.498;2023-02-28T02:27:16;103174.09;;;3.03;92.26
69784;BME280;57054;51.978;4.498;2023-02-28T02:30:13;103175.00;;;3.05;92.16
69784;BME280;57054;51.978;4.498;2023-02-28T02:35:28;103159.47;;;3.05;92.33
69784;BME280;57054;51.978;4.498;2023-02-28T02:38:09;103165.56;;;3.06;92.21
69784;BME280;57054;51.978;4.498;2023-02-28T02:40:44;103161.16;;;3.03;92.12
69784;BME280;57054;51.978;4.498;2023-02-28T02:43:50;103168.97;;;3.05;92.24
69784;BME280;57054;51.978;4.498;2023-02-28T02:46:38;103168.09;;;3.04;92.16
69784;BME280;57054;51.978;4.498;2023-02-28T02:49:08;103165.50;;;3.04;92.10
69784;BME280;57054;51.978;4.498;2023-02-28T02:51:37;103161.16;;;3.03;92.06
69784;BME280;57054;51.978;4.498;2023-02-28T02:54:40;103155.97;;;3.03;92.17
69784;BME280;57054;51.978;4.498;2023-02-28T02:57:09;103162.06;;;3.04;92.11
69784;BME280;57054;51.978;4.498;2023-02-28T02:59:38;103158.56;;;3.03;91.93
69784;BME280;57054;51.978;4.498;2023-02-28T03:02:07;103158.59;;;3.05;91.95
69784;BME280;57054;51.978;4.498;2023-02-28T03:04:34;103162.97;;;3.06;92.21
69784;BME280;57054;51.978;4.498;2023-02-28T03:07:03;103166.47;;;3.08;92.32
69784;BME280;57054;51.978;4.498;2023-02-28T03:09:29;103169.09;;;3.10;92.42
69784;BME280;57054;51.978;4.498;2023-02-28T03:11:58;103172.63;;;3.12;92.50
69784;BME280;57054;51.978;4.498;2023-02-28T03:25:04;103181.50;;;3.21;93.22
69784;BME280;57054;51.978;4.498;2023-02-28T03:27:41;103179.78;;;3.22;93.19
69784;BME280;57054;51.978;4.498;2023-02-28T03:30:15;103181.59;;;3.24;93.28
69784;BME280;57054;51.978;4.498;2023-02-28T03:32:53;103178.16;;;3.25;93.45
69784;BME280;57054;51.978;4.498;2023-02-28T03:35:23;103183.38;;;3.27;93.57
69784;BME280;57054;51.978;4.498;2023-02-28T03:37:50;103176.47;;;3.26;93.54
69784;BME280;57054;51.978;4.498;2023-02-28T03:40:21;103179.97;;;3.28;93.59
69784;BME280;57054;51.978;4.498;2023-02-28T03:42:52;103176.53;;;3.29;93.58
69784;BME280;57054;51.978;4.498;2023-02-28T03:45:26;103181.69;;;3.29;93.79
69784;BME280;57054;51.978;4.498;2023-02-28T03:48:01;103177.41;;;3.30;93.70
69784;BME280;57054;51.978;4.498;2023-02-28T03:50:39;103185.19;;;3.30;93.91
69784;BME280;57054;51.978;4.498;2023-02-28T03:53:13;103173.09;;;3.30;94.04
69784;BME280;57054;51.978;4.498;2023-02-28T03:55:47;103179.16;;;3.31;93.99
69784;BME280;57054;51.978;4.498;2023-02-28T03:58:24;103175.75;;;3.32;94.15
69784;BME280;57054;51.978;4.498;2023-02-28T04:01:03;103166.25;;;3.32;94.16
69784;BME280;57054;51.978;4.498;2023-02-28T04:03:33;103160.25;;;3.33;94.28
69784;BME280;57054;51.978;4.498;2023-02-28T04:05:59;103160.28;;;3.35;94.30
69784;BME280;57054;51.978;4.498;2023-02-28T04:08:24;103163.75;;;3.35;94.31
69784;BME280;57054;51.978;4.498;2023-02-28T04:10:57;103166.34;;;3.35;94.40
69784;BME280;57054;51.978;4.498;2023-02-28T04:13:26;103161.22;;;3.37;94.47
69784;BME280;57054;51.978;4.498;2023-02-28T04:15:51;103168.97;;;3.37;94.65
69784;BME280;57054;51.978;4.498;2023-02-28T04:18:16;103169.91;;;3.39;94.69
69784;BME280;57054;51.978;4.498;2023-02-28T04:20:42;103173.34;;;3.39;94.74
69784;BME280;57054;51.978;4.498;2023-02-28T04:23:07;103174.22;;;3.40;94.82
69784;BME280;57054;51.978;4.498;2023-02-28T04:25:33;103177.72;;;3.40;94.84
69784;BME280;57054;51.978;4.498;2023-02-28T04:27:58;103178.56;;;3.41;94.93
69784;BME280;57054;51.978;4.498;2023-02-28T04:30:24;103173.41;;;3.41;94.94
69784;BME280;57054;51.978;4.498;2023-02-28T04:32:49;103177.72;;;3.42;95.02
69784;BME280;57054;51.978;4.498;2023-02-28T04:35:14;103177.72;;;3.42;95.11
69784;BME280;57054;51.978;4.498;2023-02-28T04:37:40;103182.91;;;3.42;95.14
69784;BME280;57054;51.978;4.498;2023-02-28T04:40:06;103185.50;;;3.42;95.16
69784;BME280;57054;51.978;4.498;2023-02-28T04:42:32;103186.34;;;3.41;95.11
69784;BME280;57054;51.978;4.498;2023-02-28T04:45:02;103182.91;;;3.42;95.24
69784;BME280;57054;51.978;4.498;2023-02-28T04:47:28;103185.50;;;3.42;95.29
69784;BME280;57054;51.978;4.498;2023-02-28T04:49:53;103189.81;;;3.41;95.24
69784;BME280;57054;51.978;4.498;2023-02-28T04:52:19;103188.94;;;3.41;95.21
69784;BME280;57054;51.978;4.498;2023-02-28T04:54:44;103189.81;;;3.41;95.21
69784;BME280;57054;51.978;4.498;2023-02-28T04:57:10;103185.50;;;3.42;95.08
69784;BME280;57054;51.978;4.498;2023-02-28T04:59:35;103188.97;;;3.42;95.28
69784;BME280;57054;51.978;4.498;2023-02-28T05:02:01;103189.81;;;3.41;95.16
69784;BME280;57054;51.978;4.498;2023-02-28T05:04:32;103192.41;;;3.41;95.11
69784;BME280;57054;51.978;4.498;2023-02-28T05:06:59;103192.41;;;3.41;95.14
69784;BME280;57054;51.978;4.498;2023-02-28T05:09:25;103195.84;;;3.42;95.11
69784;BME280;57054;51.978;4.498;2023-02-28T05:11:50;103192.41;;;3.41;95.19
69784;BME280;57054;51.978;4.498;2023-02-28T05:14:16;103184.63;;;3.41;95.12
69784;BME280;57054;51.978;4.498;2023-02-28T05:16:41;103195.00;;;3.41;95.05
69784;BME280;57054;51.978;4.498;2023-02-28T05:19:07;103198.44;;;3.42;95.08
69784;BME280;57054;51.978;4.498;2023-02-28T05:21:38;103184.66;;;3.43;95.13
69784;BME280;57054;51.978;4.498;2023-02-28T05:24:07;103189.81;;;3.41;95.20
69784;BME280;57054;51.978;4.498;2023-02-28T05:26:36;103189.84;;;3.43;95.12
69784;BME280;57054;51.978;4.498;2023-02-28T05:29:02;103195.03;;;3.43;95.02
69784;BME280;57054;51.978;4.498;2023-02-28T05:31:27;103193.25;;;3.42;95.06
69784;BME280;57054;51.978;4.498;2023-02-28T05:33:53;103195.91;;;3.43;95.22
69784;BME280;57054;51.978;4.498;2023-02-28T05:36:18;103188.13;;;3.43;95.19
69784;BME280;57054;51.978;4.498;2023-02-28T05:38:46;103189.03;;;3.44;95.06
69784;BME280;57054;51.978;4.498;2023-02-28T05:41:12;103187.31;;;3.44;95.07
69784;BME280;57054;51.978;4.498;2023-02-28T05:43:37;103195.94;;;3.45;95.10
69784;BME280;57054;51.978;4.498;2023-02-28T05:46:07;103194.22;;;3.44;95.22
69784;BME280;57054;51.978;4.498;2023-02-28T05:48:34;103193.34;;;3.45;95.16
69784;BME280;57054;51.978;4.498;2023-02-28T05:51:00;103194.22;;;3.45;95.24
69784;BME280;57054;51.978;4.498;2023-02-28T05:53:26;103186.44;;;3.44;95.15
69784;BME280;57054;51.978;4.498;2023-02-28T05:55:52;103195.94;;;3.45;95.17
69784;BME280;57054;51.978;4.498;2023-02-28T05:58:17;103190.78;;;3.45;95.24
69784;BME280;57054;51.978;4.498;2023-02-28T06:00:43;103187.31;;;3.44;95.31
69784;BME280;57054;51.978;4.498;2023-02-28T06:03:09;103190.78;;;3.45;95.26
69784;BME280;57054;51.978;4.498;2023-02-28T06:05:34;103181.25;;;3.44;95.17
69784;BME280;57054;51.978;4.498;2023-02-28T06:07:59;103176.06;;;3.44;95.11
69784;BME280;57054;51.978;4.498;2023-02-28T06:10:25;103178.66;;;3.44;95.06
69784;BME280;57054;51.978;4.498;2023-02-28T06:12:50;103179.50;;;3.43;94.96
69784;BME280;57054;51.978;4.498;2023-02-28T06:15:16;103179.44;;;3.41;94.87
69784;BME280;57054;51.978;4.498;2023-02-28T06:17:42;103188.97;;;3.42;95.04
69784;BME280;57054;51.978;4.498;2023-02-28T06:20:09;103184.66;;;3.43;94.92
69784;BME280;57054;51.978;4.498;2023-02-28T06:22:36;103183.81;;;3.42;95.00
69784;BME280;57054;51.978;4.498;2023-02-28T06:25:03;103192.41;;;3.41;94.87
69784;BME280;57054;51.978;4.498;2023-02-28T06:27:30;103195.84;;;3.42;94.70
69784;BME280;57054;51.978;4.498;2023-02-28T06:29:56;103190.66;;;3.40;94.94
69784;BME280;57054;51.978;4.498;2023-02-28T06:32:22;103187.16;;;3.40;94.93
69784;BME280;57054;51.978;4.498;2023-02-28T06:34:47;103188.03;;;3.39;94.79
69784;BME280;57054;51.978;4.498;2023-02-28T06:37:13;103198.38;;;3.39;94.93
69784;BME280;57054;51.978;4.498;2023-02-28T06:39:38;103194.91;;;3.38;95.06
69784;BME280;57054;51.978;4.498;2023-02-28T06:42:04;103198.38;;;3.39;95.04
69784;BME280;57054;51.978;4.498;2023-02-28T06:44:29;103201.78;;;3.38;94.85
69784;BME280;57054;51.978;4.498;2023-02-28T06:47:04;103204.34;;;3.36;94.91
69784;BME280;57054;51.978;4.498;2023-02-28T06:49:31;103202.59;;;3.35;94.92
69784;BME280;57054;51.978;4.498;2023-02-28T06:51:57;103205.16;;;3.34;94.87
69784;BME280;57054;51.978;4.498;2023-02-28T06:54:23;103203.38;;;3.33;94.77
69784;BME280;57054;51.978;4.498;2023-02-28T06:56:48;103205.06;;;3.31;94.93
69784;BME280;57054;51.978;4.498;2023-02-28T06:59:14;103213.72;;;3.31;94.83
69784;BME280;57054;51.978;4.498;2023-02-28T07:01:39;103224.91;;;3.30;94.91
69784;BME280;57054;51.978;4.498;2023-02-28T07:04:05;103221.44;;;3.30;94.76
69784;BME280;57054;51.978;4.498;2023-02-28T07:06:31;103217.97;;;3.29;94.81
69784;BME280;57054;51.978;4.498;2023-02-28T07:08:57;103225.72;;;3.28;94.73
69784;BME280;57054;51.978;4.498;2023-02-28T07:11:24;103229.06;;;3.25;94.58
69784;BME280;57054;51.978;4.498;2023-02-28T07:13:51;103235.97;;;3.24;94.50
69784;BME280;57054;51.978;4.498;2023-02-28T07:16:17;103237.66;;;3.22;94.55
69784;BME280;57054;51.978;4.498;2023-02-28T07:18:43;103245.38;;;3.21;94.47
69784;BME280;57054;51.978;4.498;2023-02-28T07:21:10;103241.88;;;3.19;94.49
69784;BME280;57054;51.978;4.498;2023-02-28T07:23:36;103242.72;;;3.19;94.52
69784;BME280;57054;51.978;4.498;2023-02-28T07:26:03;103238.34;;;3.17;94.43
69784;BME280;57054;51.978;4.498;2023-02-28T07:28:29;103245.22;;;3.15;94.50
69784;BME280;57054;51.978;4.498;2023-02-28T07:30:54;103241.78;;;3.16;94.64
69784;BME280;57054;51.978;4.498;2023-02-28T07:33:20;103243.50;;;3.15;94.68
69784;BME280;57054;51.978;4.498;2023-02-28T07:35:45;103245.13;;;3.12;94.35
69784;BME280;57054;51.978;4.498;2023-02-28T07:38:10;103241.59;;;3.10;94.42
69784;BME280;57054;51.978;4.498;2023-02-28T07:40:37;103250.09;;;3.05;94.15
69784;BME280;57054;51.978;4.498;2023-02-28T07:43:03;103244.91;;;3.04;94.00
69784;BME280;57054;51.978;4.498;2023-02-28T07:45:29;103243.94;;;3.00;93.80
69784;BME280;57054;51.978;4.498;2023-02-28T07:47:56;103248.16;;;2.98;93.71
69784;BME280;57054;51.978;4.498;2023-02-28T07:50:21;103257.59;;;2.96;93.54
69784;BME280;57054;51.978;4.498;2023-02-28T07:52:47;103254.94;;;2.93;93.33
69784;BME280;57054;51.978;4.498;2023-02-28T07:55:13;103254.84;;;2.90;93.43
69784;BME280;57054;51.978;4.498;2023-02-28T07:57:39;103253.91;;;2.88;93.12
69784;BME280;57054;51.978;4.498;2023-02-28T08:00:07;103264.16;;;2.85;92.95
69784;BME280;57054;51.978;4.498;2023-02-28T08:02:34;103257.19;;;2.82;92.91
69784;BME280;57054;51.978;4.498;2023-02-28T08:04:59;103257.16;;;2.81;92.64
69784;BME280;57054;51.978;4.498;2023-02-28T08:07:25;103260.50;;;2.78;92.49
69784;BME280;57054;51.978;4.498;2023-02-28T08:09:50;103257.00;;;2.76;92.55
69784;BME280;57054;51.978;4.498;2023-02-28T08:12:16;103260.44;;;2.75;92.58
69784;BME280;57054;51.978;4.498;2023-02-28T08:14:41;103265.56;;;2.74;92.47
69784;BME280;57054;51.978;4.498;2023-02-28T08:17:06;103264.63;;;2.72;92.46
69784;BME280;57054;51.978;4.498;2023-02-28T08:19:32;103266.34;;;2.71;92.33
69784;BME280;57054;51.978;4.498;2023-02-28T08:21:58;103266.31;;;2.69;92.39
69784;BME280;57054;51.978;4.498;2023-02-28T08:24:23;103271.47;;;2.69;92.50
69784;BME280;57054;51.978;4.498;2023-02-28T08:26:49;103254.19;;;2.68;92.48
69784;BME280;57054;51.978;4.498;2023-02-28T08:29:15;103262.81;;;2.69;92.64
69784;BME280;57054;51.978;4.498;2023-02-28T08:31:41;103257.63;;;2.67;92.53
69784;BME280;57054;51.978;4.498;2023-02-28T08:34:07;103249.81;;;2.66;92.30
69784;BME280;57054;51.978;4.498;2023-02-28T08:36:33;103252.34;;;2.64;92.34
69784;BME280;57054;51.978;4.498;2023-02-28T08:38:59;103252.28;;;2.63;92.38
69784;BME280;57054;51.978;4.498;2023-02-28T08:41:25;103244.53;;;2.63;92.37
69784;BME280;57054;51.978;4.498;2023-02-28T08:43:51;103246.19;;;2.61;92.66
69784;BME280;57054;51.978;4.498;2023-02-28T08:46:17;103253.09;;;2.62;92.70
69784;BME280;57054;51.978;4.498;2023-02-28T08:48:43;103248.78;;;2.61;92.77
69784;BME280;57054;51.978;4.498;2023-02-28T08:51:12;103229.78;;;2.60;92.71
69784;BME280;57054;51.978;4.498;2023-02-28T08:53:39;103228.03;;;2.59;92.69
69784;BME280;57054;51.978;4.498;2023-02-28T08:56:09;103231.44;;;2.58;92.60
69784;BME280;57054;51.978;4.498;2023-02-28T08:58:35;103235.69;;;2.56;92.67
69784;BME280;57054;51.978;4.498;2023-02-28T09:01:06;103231.41;;;2.57;92.87
69784;BME280;57054;51.978;4.498;2023-02-28T09:03:32;103232.34;;;2.59;92.97
69784;BME280;57054;51.978;4.498;2023-02-28T09:05:59;103243.53;;;2.59;93.24
69784;BME280;57054;51.978;4.498;2023-02-28T09:08:26;103240.16;;;2.60;93.34
69784;BME280;57054;51.978;4.498;2023-02-28T09:10:52;103232.41;;;2.62;93.26
69784;BME280;57054;51.978;4.498;2023-02-28T09:13:18;103235.00;;;2.62;93.40
69784;BME280;57054;51.978;4.498;2023-02-28T09:15:43;103236.81;;;2.64;93.58
69784;BME280;57054;51.978;4.498;2023-02-28T09:18:09;103245.50;;;2.66;93.77
69784;BME280;57054;51.978;4.498;2023-02-28T09:20:37;103243.72;;;2.65;94.06
69784;BME280;57054;51.978;4.498;2023-02-28T09:23:03;103254.13;;;2.67;93.90
69784;BME280;57054;51.978;4.498;2023-02-28T09:25:29;103248.13;;;2.68;93.91
69784;BME280;57054;51.978;4.498;2023-02-28T09:27:54;103244.69;;;2.69;94.02
69784;BME280;57054;51.978;4.498;2023-02-28T09:30:19;103238.72;;;2.70;94.21
69784;BME280;57054;51.978;4.498;2023-02-28T09:32:45;103243.06;;;2.71;94.28
69784;BME280;57054;51.978;4.498;2023-02-28T09:35:23;103249.16;;;2.73;94.55
69784;BME280;57054;51.978;4.498;2023-02-28T09:37:50;103248.38;;;2.76;94.66
69784;BME280;57054;51.978;4.498;2023-02-28T09:40:18;103246.66;;;2.76;94.77
69784;BME280;57054;51.978;4.498;2023-02-28T09:42:47;103251.06;;;2.79;94.85
69784;BME280;57054;51.978;4.498;2023-02-28T09:47:56;103244.22;;;2.81;95.17
69784;BME280;57054;51.978;4.498;2023-02-28T09:50:29;103242.53;;;2.83;95.17
69784;BME280;57054;51.978;4.498;2023-02-28T09:52:58;103250.34;;;2.84;95.29
69784;BME280;57054;51.978;4.498;2023-02-28T09:55:34;103252.16;;;2.87;95.51
69784;BME280;57054;51.978;4.498;2023-02-28T09:58:05;103245.28;;;2.87;95.49
69784;BME280;57054;51.978;4.498;2023-02-28T10:00:39;103253.06;;;2.89;95.64
69784;BME280;57054;51.978;4.498;2023-02-28T10:03:22;103258.25;;;2.89;95.73
69784;BME280;57054;51.978;4.498;2023-02-28T10:06:08;103253.06;;;2.89;95.60
69784;BME280;57054;51.978;4.498;2023-02-28T10:08:42;103255.66;;;2.89;95.59
69784;BME280;57054;51.978;4.498;2023-02-28T10:11:14;103251.38;;;2.90;95.84
69784;BME280;57054;51.978;4.498;2023-02-28T10:14:06;103247.06;;;2.90;96.02
69784;BME280;57054;51.978;4.498;2023-02-28T10:19:40;103260.00;;;2.90;95.94
69784;BME280;57054;51.978;4.498;2023-02-28T10:22:15;103260.06;;;2.92;96.01
69784;BME280;57054;51.978;4.498;2023-02-28T10:24:50;103254.94;;;2.93;95.94
69784;BME280;57054;51.978;4.498;2023-02-28T10:27:22;103244.59;;;2.95;96.06
69784;BME280;57054;51.978;4.498;2023-02-28T10:29:49;103250.72;;;2.97;96.18
69784;BME280;57054;51.978;4.498;2023-02-28T10:32:19;103249.00;;;2.97;96.07
69784;BME280;57054;51.978;4.498;2023-02-28T10:34:52;103246.47;;;2.99;96.07
69784;BME280;57054;51.978;4.498;2023-02-28T10:37:19;103249.13;;;3.02;96.03
69784;BME280;57054;51.978;4.498;2023-02-28T10:39:46;103243.13;;;3.03;96.21
69784;BME280;57054;51.978;4.498;2023-02-28T10:42:24;103249.22;;;3.05;96.29
69784;BME280;57054;51.978;4.498;2023-02-28T10:47:40;103237.19;;;3.07;96.37
69784;BME280;57054;51.978;4.498;2023-02-28T10:52:54;103242.41;;;3.08;96.37
69784;BME280;57054;51.978;4.498;2023-02-28T10:55:23;103235.56;;;3.11;96.15
69784;BME280;57054;51.978;4.498;2023-02-28T10:57:50;103234.75;;;3.12;96.20
69784;BME280;57054;51.978;4.498;2023-02-28T11:00:22;103227.03;;;3.13;95.17
69784;BME280;57054;51.978;4.498;2023-02-28T11:02:48;103227.03;;;3.13;95.17
69784;BME280;57054;51.978;4.498;2023-02-28T11:05:34;103220.19;;;3.15;94.97
69784;BME280;57054;51.978;4.498;2023-02-28T11:08:10;103223.69;;;3.17;95.06
69784;BME280;57054;51.978;4.498;2023-02-28T11:10:36;103226.31;;;3.19;94.80
69784;BME280;57054;51.978;4.498;2023-02-28T11:13:02;103220.25;;;3.18;94.52
69784;BME280;57054;51.978;4.498;2023-02-28T11:15:37;103217.72;;;3.20;94.46
69784;BME280;57054;51.978;4.498;2023-02-28T11:20:38;103216.75;;;3.16;92.64
69784;BME280;57054;51.978;4.498;2023-02-28T11:23:04;103215.88;;;3.16;91.95
69784;BME280;57054;51.978;4.498;2023-02-28T11:25:32;103217.53;;;3.14;90.19
69784;BME280;57054;51.978;4.498;2023-02-28T11:28:03;103218.38;;;3.13;89.76
69784;BME280;57054;51.978;4.498;2023-02-28T11:30:32;103210.59;;;3.11;87.38
69784;BME280;57054;51.978;4.498;2023-02-28T11:32:59;103214.03;;;3.12;87.43
69784;BME280;57054;51.978;4.498;2023-02-28T11:35:33;103214.09;;;3.13;86.78
69784;BME280;57054;51.978;4.498;2023-02-28T11:38:00;103209.81;;;3.15;86.80
69784;BME280;57054;51.978;4.498;2023-02-28T11:43:45;103203.84;;;3.18;84.11
69784;BME280;57054;51.978;4.498;2023-02-28T11:46:20;103207.31;;;3.18;83.41
69784;BME280;57054;51.978;4.498;2023-02-28T11:49:18;103194.44;;;3.21;81.84
69784;BME280;57054;51.978;4.498;2023-02-28T11:52:20;103197.03;;;3.21;81.17
69784;BME280;57054;51.978;4.498;2023-02-28T11:57:38;103197.13;;;3.24;78.44
69784;BME280;57054;51.978;4.498;2023-02-28T12:00:25;103191.09;;;3.25;78.36
69784;BME280;57054;51.978;4.498;2023-02-28T12:08:26;103180.06;;;3.31;77.73
69784;BME280;57054;51.978;4.498;2023-02-28T12:13:46;103174.03;;;3.32;75.17
69784;BME280;57054;51.978;4.498;2023-02-28T12:22:00;103174.22;;;3.40;74.11
69784;BME280;57054;51.978;4.498;2023-02-28T12:27:18;103167.44;;;3.45;73.75
69784;BME280;57054;51.978;4.498;2023-02-28T12:29:55;103170.91;;;3.44;72.27
69784;BME280;57054;51.978;4.498;2023-02-28T12:32:30;103168.31;;;3.45;72.51
69784;BME280;57054;51.978;4.498;2023-02-28T12:35:03;103165.78;;;3.47;72.43
69784;BME280;57054;51.978;4.498;2023-02-28T12:40:11;103161.53;;;3.51;72.97
69784;BME280;57054;51.978;4.498;2023-02-28T12:42:41;103166.72;;;3.51;71.99
69784;BME280;57054;51.978;4.498;2023-02-28T12:45:13;103160.81;;;3.55;73.02
69784;BME280;57054;51.978;4.498;2023-02-28T12:47:43;103154.78;;;3.56;72.60
69784;BME280;57054;51.978;4.498;2023-02-28T12:50:10;103156.56;;;3.58;72.78
69784;BME280;57054;51.978;4.498;2023-02-28T12:58:14;103151.56;;;3.64;70.91
69784;BME280;57054;51.978;4.498;2023-02-28T13:01:15;103148.09;;;3.65;70.68
69784;BME280;57054;51.978;4.498;2023-02-28T13:09:08;103139.59;;;3.70;69.33
69784;BME280;57054;51.978;4.498;2023-02-28T13:11:45;103135.31;;;3.72;69.92
69784;BME280;57054;51.978;4.498;2023-02-28T13:14:36;103128.38;;;3.71;69.45
69784;BME280;57054;51.978;4.498;2023-02-28T13:35:45;103109.53;;;3.78;67.68
69784;BME280;57054;51.978;4.498;2023-02-28T13:38:22;103114.75;;;3.79;68.13
69784;BME280;57054;51.978;4.498;2023-02-28T13:40:48;103108.75;;;3.80;67.44
69784;BME280;57054;51.978;4.498;2023-02-28T13:43:16;103105.25;;;3.80;66.63
69784;BME280;57054;51.978;4.498;2023-02-28T13:46:06;103110.47;;;3.81;66.54
69784;BME280;57054;51.978;4.498;2023-02-28T13:48:33;103098.47;;;3.85;66.66
69784;BME280;57054;51.978;4.498;2023-02-28T13:50:58;103102.78;;;3.84;65.08
69784;BME280;57054;51.978;4.498;2023-02-28T13:53:34;103101.06;;;3.85;65.75
69784;BME280;57054;51.978;4.498;2023-02-28T13:56:21;103095.91;;;3.87;66.86
69784;BME280;57054;51.978;4.498;2023-02-28T13:58:54;103096.81;;;3.89;66.17
69784;BME280;57054;51.978;4.498;2023-02-28T14:01:41;103094.28;;;3.90;65.86
69784;BME280;57054;51.978;4.498;2023-02-28T14:06:55;103083.09;;;3.93;65.56
69784;BME280;57054;51.978;4.498;2023-02-28T14:09:29;103086.56;;;3.93;67.11
69784;BME280;57054;51.978;4.498;2023-02-28T14:11:55;103091.81;;;3.96;67.31
69784;BME280;57054;51.978;4.498;2023-02-28T14:17:03;103083.25;;;3.99;68.34
69784;BME280;57054;51.978;4.498;2023-02-28T14:19:30;103070.31;;;4.00;66.34
69784;BME280;57054;51.978;4.498;2023-02-28T14:23:02;103072.91;;;4.02;66.42
69784;BME280;57054;51.978;4.498;2023-02-28T14:27:49;103075.59;;;4.05;65.28
69784;BME280;57054;51.978;4.498;2023-02-28T14:30:59;103072.22;;;4.08;65.21
69784;BME280;57054;51.978;4.498;2023-02-28T14:38:36;103067.97;;;4.11;66.96
69784;BME280;57054;51.978;4.498;2023-02-28T14:41:14;103075.75;;;4.13;66.96
69784;BME280;57054;51.978;4.498;2023-02-28T14:43:49;103072.28;;;4.12;65.43
69784;BME280;57054;51.978;4.498;2023-02-28T14:46:15;103073.16;;;4.13;63.75
69784;BME280;57054;51.978;4.498;2023-02-28T14:48:45;103071.50;;;4.16;65.06
69784;BME280;57054;51.978;4.498;2023-02-28T14:51:12;103070.72;;;4.19;65.08
69784;BME280;57054;51.978;4.498;2023-02-28T14:53:43;103068.09;;;4.17;64.50
69784;BME280;57054;51.978;4.498;2023-02-28T14:56:27;103065.53;;;4.19;64.99
69784;BME280;57054;51.978;4.498;2023-02-28T14:58:56;103062.06;;;4.20;65.54
69784;BME280;57054;51.978;4.498;2023-02-28T15:01:23;103071.66;;;4.22;65.85